Time;durP1;ratioP1;P1;durP2;ratioP2;P2;SDS_P1;SDS_P2;PMS_P1;PMS_P2;Temp;Humidity;BMP_temperature;BMP_pressure;BME280_temperature;BME280_humidity;BME280_pressure;Samples;Min_cycle;Max_cycle;Signal;HPM_P1;HPM_P2
2021/11/30 00:02:25;;;;;;;5.87;4.63;;;;;;;;;;4995116;28;20018;-78
2021/11/30 00:04:50;;;;;;;6.00;4.37;;;;;;;;;;4996843;28;20018;-78
2021/11/30 00:07:16;;;;;;;6.63;4.70;;;;;;;;;;4995971;28;20029;-78
2021/11/30 00:12:11;;;;;;;5.63;4.87;;;;;;;;;;5012221;28;20030;-78
2021/11/30 00:14:37;;;;;;;6.23;4.80;;;;;;;;;;5011012;28;20112;-78
2021/11/30 00:17:03;;;;;;;5.37;4.70;;;;;;;;;;5001431;28;20026;-77
2021/11/30 00:19:29;;;;;;;4.97;4.23;;;;;;;;;;5011243;28;20116;-78
2021/11/30 00:21:54;;;;;;;5.57;4.57;;;;;;;;;;5011982;28;20117;-78
2021/11/30 00:24:21;;;;;;;5.43;4.50;;;;;;;;;;5012685;28;20052;-77
2021/11/30 00:26:46;;;;;;;5.60;4.87;;;;;;;;;;5012421;28;20048;-75
2021/11/30 00:29:11;;;;;;;6.23;4.50;;;;;;;;;;5006956;28;20474;-76
2021/11/30 00:31:37;;;;;;;5.87;4.03;;;;;;;;;;5010581;28;20022;-75
2021/11/30 00:34:02;;;;;;;4.97;3.97;;;;;;;;;;4995126;28;20114;-76
2021/11/30 00:36:27;;;;;;;5.90;4.40;;;;;;;;;;5013680;28;20414;-74
2021/11/30 00:38:52;;;;;;;6.23;4.20;;;;;;;;;;5013008;28;20029;-75
2021/11/30 00:41:18;;;;;;;5.77;4.27;;;;;;;;;;5011844;28;20470;-75
2021/11/30 00:43:43;;;;;;;6.20;4.97;;;;;;;;;;4999753;28;20026;-75
2021/11/30 00:46:20;;;;;;;4.73;3.87;;;;;;;;;;5012827;28;20113;-75
2021/11/30 00:48:46;;;;;;;4.80;4.27;;;;;;;;;;5012707;28;20081;-75
2021/11/30 00:51:12;;;;;;;5.67;4.47;;;;;;;;;;5013430;28;20478;-76
2021/11/30 00:53:39;;;;;;;5.20;4.00;;;;;;;;;;5010834;28;20578;-76
2021/11/30 00:56:05;;;;;;;4.33;3.50;;;;;;;;;;5008301;28;20029;-76
2021/11/30 00:58:31;;;;;;;5.93;4.40;;;;;;;;;;5003067;28;20026;-75
2021/11/30 01:00:56;;;;;;;5.33;3.97;;;;;;;;;;5007741;28;20033;-75
2021/11/30 01:03:22;;;;;;;4.73;3.77;;;;;;;;;;4999831;28;20030;-75
2021/11/30 01:05:47;;;;;;;5.47;4.20;;;;;;;;;;5010347;28;20104;-76
2021/11/30 01:08:12;;;;;;;4.97;4.10;;;;;;;;;;5012596;28;20360;-76
2021/11/30 01:10:38;;;;;;;5.37;4.50;;;;;;;;;;4991727;28;20054;-76
2021/11/30 01:13:04;;;;;;;4.40;3.90;;;;;;;;;;5001317;28;20046;-76
2021/11/30 01:15:30;;;;;;;5.03;3.63;;;;;;;;;;5010065;28;20038;-75
2021/11/30 01:17:55;;;;;;;5.23;4.10;;;;;;;;;;5011911;28;20104;-77
2021/11/30 01:20:20;;;;;;;4.60;3.50;;;;;;;;;;5011109;28;20549;-77
2021/11/30 01:22:46;;;;;;;4.30;3.00;;;;;;;;;;5012585;28;20085;-78
2021/11/30 01:25:11;;;;;;;5.17;3.90;;;;;;;;;;5011822;28;20047;-78
2021/11/30 01:27:37;;;;;;;6.13;3.90;;;;;;;;;;5007231;28;20666;-77
2021/11/30 01:30:03;;;;;;;4.50;3.57;;;;;;;;;;5002971;28;20084;-78
2021/11/30 01:32:29;;;;;;;4.57;3.23;;;;;;;;;;5011113;28;20030;-76
2021/11/30 01:34:54;;;;;;;5.37;4.30;;;;;;;;;;5005881;28;20426;-77
2021/11/30 01:37:19;;;;;;;4.17;3.40;;;;;;;;;;4994353;28;20471;-78
2021/11/30 01:39:46;;;;;;;6.13;4.20;;;;;;;;;;4991326;28;20479;-76
2021/11/30 01:42:13;;;;;;;4.27;3.17;;;;;;;;;;4995007;28;20026;-76
2021/11/30 01:49:55;;;;;;;5.57;4.10;;;;;;;;;;5011114;28;20032;-75
2021/11/30 01:52:21;;;;;;;5.13;3.43;;;;;;;;;;5011408;28;20021;-74
2021/11/30 01:54:46;;;;;;;6.70;4.17;;;;;;;;;;5008683;28;20034;-75
2021/11/30 01:57:13;;;;;;;4.37;3.03;;;;;;;;;;5010258;28;20371;-77
2021/11/30 01:59:38;;;;;;;4.80;4.07;;;;;;;;;;5003677;28;20040;-77
2021/11/30 02:02:04;;;;;;;4.30;2.67;;;;;;;;;;4994668;28;20026;-76
2021/11/30 02:04:29;;;;;;;3.67;2.80;;;;;;;;;;5009190;28;20064;-76
2021/11/30 02:06:55;;;;;;;4.23;3.10;;;;;;;;;;4993984;28;20470;-76
2021/11/30 02:09:20;;;;;;;3.90;2.80;;;;;;;;;;5010103;28;20030;-75
2021/11/30 02:11:45;;;;;;;5.03;3.10;;;;;;;;;;4993549;28;20164;-75
2021/11/30 02:14:11;;;;;;;3.70;2.53;;;;;;;;;;5009240;28;20050;-75
2021/11/30 02:16:36;;;;;;;5.27;3.20;;;;;;;;;;4998002;28;20505;-77
2021/11/30 02:19:03;;;;;;;4.93;3.80;;;;;;;;;;5009703;28;20073;-76
2021/11/30 02:21:32;;;;;;;4.80;3.53;;;;;;;;;;5012141;28;20029;-76
2021/11/30 02:23:59;;;;;;;4.53;3.33;;;;;;;;;;5010041;28;20053;-76
2021/11/30 02:26:25;;;;;;;3.80;2.90;;;;;;;;;;5010615;28;20036;-76
2021/11/30 02:28:51;;;;;;;5.53;2.73;;;;;;;;;;5004459;28;20022;-76
2021/11/30 02:31:17;;;;;;;5.43;3.33;;;;;;;;;;5009124;28;20053;-76
2021/11/30 02:33:43;;;;;;;5.33;2.83;;;;;;;;;;5009495;28;20116;-75
2021/11/30 02:36:14;;;;;;;6.10;3.87;;;;;;;;;;5010481;28;20554;-75
2021/11/30 02:38:40;;;;;;;5.20;3.67;;;;;;;;;;4999815;28;20033;-75
2021/11/30 02:41:05;;;;;;;5.43;3.73;;;;;;;;;;5009117;28;20042;-75
2021/11/30 02:43:30;;;;;;;5.33;3.50;;;;;;;;;;5011303;28;20371;-75
2021/11/30 02:45:55;;;;;;;5.00;3.10;;;;;;;;;;5008535;28;20065;-75
2021/11/30 02:48:21;;;;;;;4.73;3.03;;;;;;;;;;5006556;28;20033;-75
2021/11/30 02:50:46;;;;;;;4.33;3.50;;;;;;;;;;5007543;28;20030;-76
2021/11/30 02:53:16;;;;;;;3.53;2.97;;;;;;;;;;5010860;28;20022;-74
2021/11/30 02:55:43;;;;;;;3.90;3.43;;;;;;;;;;4996637;28;20233;-75
2021/11/30 02:58:08;;;;;;;4.00;3.10;;;;;;;;;;5008786;28;20040;-73
2021/11/30 03:00:33;;;;;;;3.20;2.50;;;;;;;;;;5003039;28;20034;-75
2021/11/30 03:02:58;;;;;;;4.53;3.87;;;;;;;;;;5013106;28;20022;-74
2021/11/30 03:05:24;;;;;;;4.90;2.83;;;;;;;;;;5009928;28;20018;-74
2021/11/30 03:07:49;;;;;;;4.50;3.20;;;;;;;;;;5024168;28;20034;-76
2021/11/30 03:10:16;;;;;;;3.87;2.90;;;;;;;;;;5014840;28;20482;-78
2021/11/30 03:12:43;;;;;;;6.07;3.43;;;;;;;;;;5013985;28;20052;-77
2021/11/30 03:15:09;;;;;;;3.97;3.37;;;;;;;;;;5008169;28;20028;-76
2021/11/30 03:17:35;;;;;;;3.80;3.20;;;;;;;;;;5013845;28;20057;-76
2021/11/30 03:20:00;;;;;;;5.37;3.33;;;;;;;;;;5014185;28;20029;-75
2021/11/30 03:22:25;;;;;;;4.70;3.77;;;;;;;;;;5012142;28;20470;-76
2021/11/30 03:24:51;;;;;;;4.57;3.30;;;;;;;;;;5012771;28;20029;-76
2021/11/30 03:27:16;;;;;;;4.00;3.23;;;;;;;;;;5013730;28;20026;-75
2021/11/30 03:29:41;;;;;;;4.50;3.67;;;;;;;;;;5005880;28;20115;-75
2021/11/30 03:32:10;;;;;;;5.13;3.53;;;;;;;;;;5012819;28;20018;-76
2021/11/30 03:34:36;;;;;;;4.63;3.37;;;;;;;;;;5011758;28;20022;-75
2021/11/30 03:37:02;;;;;;;4.43;3.70;;;;;;;;;;5013447;28;20379;-75
2021/11/30 03:39:28;;;;;;;4.17;3.53;;;;;;;;;;5006529;28;20026;-75
2021/11/30 03:41:54;;;;;;;4.47;3.50;;;;;;;;;;5012004;28;20030;-75
2021/11/30 03:44:19;;;;;;;5.03;4.17;;;;;;;;;;5013970;28;20474;-74
2021/11/30 03:46:45;;;;;;;5.67;4.37;;;;;;;;;;5012179;28;20089;-75
2021/11/30 03:49:11;;;;;;;5.83;4.20;;;;;;;;;;5005692;28;20025;-75
2021/11/30 03:51:37;;;;;;;4.93;3.50;;;;;;;;;;5014938;28;20044;-75
2021/11/30 03:54:03;;;;;;;5.50;4.70;;;;;;;;;;5007507;28;20030;-74
2021/11/30 03:56:28;;;;;;;5.93;4.40;;;;;;;;;;5011438;28;20120;-74
2021/11/30 03:58:54;;;;;;;5.93;4.40;;;;;;;;;;5007340;28;20133;-74
2021/11/30 04:01:20;;;;;;;7.50;5.00;;;;;;;;;;5008979;28;20120;-75
2021/11/30 04:03:46;;;;;;;7.97;5.63;;;;;;;;;;5012704;28;20304;-74
2021/11/30 04:06:11;;;;;;;6.47;4.47;;;;;;;;;;4995165;28;20042;-73
2021/11/30 04:08:38;;;;;;;5.87;4.87;;;;;;;;;;5012736;28;20037;-74
2021/11/30 04:11:08;;;;;;;5.50;4.30;;;;;;;;;;5010354;28;20083;-74
2021/11/30 04:13:33;;;;;;;6.37;5.00;;;;;;;;;;5013287;28;20026;-75
2021/11/30 04:15:59;;;;;;;7.17;5.80;;;;;;;;;;5010783;28;20025;-74
2021/11/30 04:18:24;;;;;;;6.70;5.33;;;;;;;;;;4987617;28;20038;-74
2021/11/30 04:20:50;;;;;;;6.83;5.47;;;;;;;;;;5005912;28;20040;-74
2021/11/30 04:23:15;;;;;;;8.53;6.03;;;;;;;;;;5012145;28;20057;-74
2021/11/30 04:25:40;;;;;;;8.40;6.17;;;;;;;;;;4995593;28;20038;-74
2021/11/30 04:28:06;;;;;;;7.03;5.63;;;;;;;;;;5008117;28;20061;-75
2021/11/30 04:30:31;;;;;;;7.93;6.13;;;;;;;;;;5000153;28;20553;-75
2021/11/30 04:32:56;;;;;;;7.87;6.73;;;;;;;;;;5010627;28;20145;-75
2021/11/30 04:35:22;;;;;;;7.33;6.10;;;;;;;;;;5010187;28;20030;-75
2021/11/30 04:37:47;;;;;;;8.10;6.37;;;;;;;;;;5011158;28;20490;-75
2021/11/30 04:40:14;;;;;;;9.17;7.37;;;;;;;;;;4995963;28;20025;-74
2021/11/30 04:42:42;;;;;;;10.53;7.47;;;;;;;;;;5012613;28;20025;-75
2021/11/30 04:45:13;;;;;;;10.13;7.87;;;;;;;;;;4994249;28;20037;-74
2021/11/30 04:47:41;;;;;;;10.23;7.60;;;;;;;;;;5012741;28;20021;-75
2021/11/30 04:50:14;;;;;;;12.97;8.50;;;;;;;;;;5012067;28;20049;-75
2021/11/30 04:52:40;;;;;;;12.20;8.80;;;;;;;;;;5011043;28;20493;-75
2021/11/30 04:55:06;;;;;;;15.17;10.00;;;;;;;;;;5012809;28;20050;-74
2021/11/30 04:57:31;;;;;;;11.23;6.90;;;;;;;;;;5009599;28;20064;-74
2021/11/30 04:59:56;;;;;;;11.10;7.80;;;;;;;;;;5008160;28;20139;-75
2021/11/30 05:02:22;;;;;;;14.87;9.63;;;;;;;;;;4990005;28;20026;-75
2021/11/30 05:04:47;;;;;;;15.17;9.80;;;;;;;;;;5011651;28;20124;-76
2021/11/30 05:07:14;;;;;;;16.70;9.97;;;;;;;;;;5012135;28;20109;-76
2021/11/30 05:09:40;;;;;;;14.37;9.47;;;;;;;;;;5011414;28;20296;-77
2021/11/30 05:12:05;;;;;;;14.07;9.50;;;;;;;;;;5011974;28;20060;-77
2021/11/30 05:14:30;;;;;;;13.73;9.90;;;;;;;;;;5010439;28;20121;-77
2021/11/30 05:16:56;;;;;;;13.90;8.63;;;;;;;;;;5009952;28;20026;-77
2021/11/30 05:19:21;;;;;;;17.80;10.67;;;;;;;;;;5013373;28;20450;-77
2021/11/30 05:21:46;;;;;;;12.80;7.53;;;;;;;;;;5010709;28;20445;-77
2021/11/30 05:24:11;;;;;;;13.43;9.23;;;;;;;;;;5008408;28;20407;-77
2021/11/30 05:26:37;;;;;;;13.83;8.63;;;;;;;;;;5011657;28;20041;-77
2021/11/30 05:29:04;;;;;;;11.70;7.70;;;;;;;;;;5003326;28;20025;-76
2021/11/30 05:31:29;;;;;;;9.87;6.90;;;;;;;;;;5000525;28;20471;-77
2021/11/30 05:33:55;;;;;;;10.73;7.87;;;;;;;;;;5005977;28;20026;-77
2021/11/30 05:36:21;;;;;;;9.67;7.63;;;;;;;;;;5007988;28;20026;-77
2021/11/30 05:38:46;;;;;;;9.80;6.80;;;;;;;;;;5011041;28;20030;-77
2021/11/30 05:41:11;;;;;;;8.20;6.47;;;;;;;;;;5010671;28;20026;-77
2021/11/30 05:43:37;;;;;;;8.97;6.47;;;;;;;;;;4992969;28;20030;-77
2021/11/30 05:46:02;;;;;;;6.83;5.33;;;;;;;;;;5006020;28;20224;-77
2021/11/30 05:48:28;;;;;;;7.93;5.90;;;;;;;;;;5008869;28;20124;-77
2021/11/30 05:50:53;;;;;;;7.20;5.70;;;;;;;;;;4995101;28;20117;-74
2021/11/30 05:53:19;;;;;;;6.73;5.10;;;;;;;;;;5011078;28;20022;-76
2021/11/30 05:55:44;;;;;;;7.67;4.70;;;;;;;;;;4989294;28;20026;-75
2021/11/30 05:58:13;;;;;;;6.97;5.13;;;;;;;;;;5009133;28;20092;-76
2021/11/30 06:00:39;;;;;;;4.80;3.90;;;;;;;;;;5012287;28;20391;-77
2021/11/30 06:03:20;;;;;;;3.90;2.30;;;;;;;;;;5009987;28;20053;-77
2021/11/30 06:05:46;;;;;;;5.17;4.03;;;;;;;;;;5008702;28;20040;-78
2021/11/30 06:08:11;;;;;;;3.63;2.80;;;;;;;;;;4993878;28;20033;-77
2021/11/30 06:10:36;;;;;;;4.57;3.80;;;;;;;;;;5008325;28;20117;-77
2021/11/30 06:13:02;;;;;;;4.60;3.63;;;;;;;;;;4994277;28;20036;-77
2021/11/30 06:15:27;;;;;;;3.73;2.67;;;;;;;;;;5009515;28;20026;-76
2021/11/30 06:17:52;;;;;;;5.00;3.33;;;;;;;;;;5004330;28;20493;-74
2021/11/30 06:20:18;;;;;;;3.83;2.77;;;;;;;;;;5006866;28;20048;-75
2021/11/30 06:22:43;;;;;;;4.13;3.17;;;;;;;;;;5009473;28;20048;-75
2021/11/30 06:25:09;;;;;;;2.30;2.10;;;;;;;;;;5009557;28;20021;-75
2021/11/30 06:27:35;;;;;;;3.33;2.23;;;;;;;;;;5004083;28;20022;-76
2021/11/30 06:30:00;;;;;;;4.23;2.77;;;;;;;;;;4999059;28;20040;-76
2021/11/30 06:32:26;;;;;;;5.30;3.80;;;;;;;;;;5011175;28;20046;-77
2021/11/30 06:34:52;;;;;;;3.83;3.47;;;;;;;;;;5010951;28;20527;-78
2021/11/30 06:37:17;;;;;;;4.10;3.17;;;;;;;;;;5006713;28;20128;-79
2021/11/30 06:39:43;;;;;;;4.50;3.50;;;;;;;;;;5008351;28;20457;-79
2021/11/30 06:42:08;;;;;;;4.50;4.00;;;;;;;;;;5010470;28;20029;-78
2021/11/30 06:44:35;;;;;;;3.77;2.77;;;;;;;;;;4992828;28;20395;-80
2021/11/30 06:47:01;;;;;;;4.67;3.67;;;;;;;;;;5006308;28;20030;-80
2021/11/30 06:49:26;;;;;;;5.90;3.93;;;;;;;;;;5004388;28;20034;-79
2021/11/30 06:51:51;;;;;;;6.87;3.50;;;;;;;;;;4993605;28;20117;-79
2021/11/30 06:54:17;;;;;;;4.13;3.40;;;;;;;;;;5008588;28;20025;-80
2021/11/30 06:56:42;;;;;;;3.43;2.70;;;;;;;;;;5009168;28;20372;-76
2021/11/30 06:59:08;;;;;;;6.17;3.60;;;;;;;;;;5005910;28;20101;-79
2021/11/30 07:01:34;;;;;;;4.47;3.03;;;;;;;;;;5005185;28;20029;-79
2021/11/30 07:04:02;;;;;;;3.87;3.00;;;;;;;;;;5008919;28;20013;-79
2021/11/30 07:06:36;;;;;;;3.40;3.10;;;;;;;;;;5009992;28;20030;-78
2021/11/30 07:09:16;;;;;;;5.63;3.40;;;;;;;;;;5009945;28;20033;-78
2021/11/30 07:14:07;;;;;;;3.33;2.77;;;;;;;;;;5011531;28;20018;-77
2021/11/30 07:16:32;;;;;;;3.77;2.87;;;;;;;;;;4999899;28;20391;-76
2021/11/30 07:18:58;;;;;;;4.27;2.67;;;;;;;;;;4985624;28;20498;-75
2021/11/30 07:21:24;;;;;;;3.87;2.60;;;;;;;;;;5010473;28;20083;-75
2021/11/30 07:23:50;;;;;;;4.67;3.03;;;;;;;;;;5011459;28;20132;-76
2021/11/30 07:26:16;;;;;;;4.43;2.87;;;;;;;;;;4988024;28;20042;-75
2021/11/30 07:28:41;;;;;;;5.23;2.57;;;;;;;;;;4978115;28;20073;-74
2021/11/30 07:31:10;;;;;;;3.90;2.93;;;;;;;;;;5002237;28;20018;-75
2021/11/30 07:33:37;;;;;;;5.30;3.43;;;;;;;;;;5009229;28;20071;-76
2021/11/30 07:36:04;;;;;;;6.40;3.87;;;;;;;;;;5011087;28;20525;-77
2021/11/30 07:38:30;;;;;;;5.03;3.17;;;;;;;;;;4999024;28;20030;-79
2021/11/30 07:40:55;;;;;;;5.53;3.53;;;;;;;;;;5000591;28;20026;-76
2021/11/30 07:43:20;;;;;;;4.83;3.73;;;;;;;;;;4996708;28;20096;-76
2021/11/30 07:45:46;;;;;;;4.53;3.17;;;;;;;;;;5012308;28;20044;-76
2021/11/30 07:48:11;;;;;;;4.37;2.67;;;;;;;;;;5013700;28;20022;-76
2021/11/30 07:50:36;;;;;;;5.23;2.37;;;;;;;;;;5000530;28;20034;-76
2021/11/30 07:53:02;;;;;;;4.63;2.47;;;;;;;;;;5007890;28;20524;-76
2021/11/30 07:55:27;;;;;;;5.83;2.43;;;;;;;;;;5012624;28;20030;-77
2021/11/30 07:57:53;;;;;;;3.83;2.40;;;;;;;;;;5010721;28;20017;-76
2021/11/30 08:00:19;;;;;;;4.17;2.50;;;;;;;;;;5024775;28;20033;-76
2021/11/30 08:02:45;;;;;;;2.80;1.40;;;;;;;;;;5008273;28;20101;-77
2021/11/30 08:05:10;;;;;;;2.60;1.50;;;;;;;;;;5005285;28;20022;-76
2021/11/30 08:07:36;;;;;;;1.20;1.10;;;;;;;;;;5005860;28;20152;-76
2021/11/30 08:10:08;;;;;;;4.97;1.60;;;;;;;;;;5013292;28;20025;-76
2021/11/30 08:12:34;;;;;;;2.30;1.40;;;;;;;;;;5012804;28;20394;-76
2021/11/30 08:14:59;;;;;;;2.27;1.30;;;;;;;;;;5009861;28;20022;-77
2021/11/30 08:17:24;;;;;;;1.47;1.33;;;;;;;;;;5028410;28;20033;-78
2021/11/30 08:19:49;;;;;;;1.80;0.97;;;;;;;;;;5012451;28;20386;-77
2021/11/30 08:22:15;;;;;;;2.10;1.73;;;;;;;;;;5012488;28;20105;-78
2021/11/30 08:24:41;;;;;;;0.67;0.67;;;;;;;;;;5012642;28;20022;-78
2021/11/30 08:27:07;;;;;;;1.23;0.73;;;;;;;;;;5021111;28;20440;-76
2021/11/30 08:29:35;;;;;;;2.27;1.33;;;;;;;;;;5002609;28;20050;-78
2021/11/30 08:32:00;;;;;;;1.77;0.97;;;;;;;;;;5015090;28;20049;-77
2021/11/30 08:34:26;;;;;;;1.33;0.60;;;;;;;;;;5012455;28;20049;-77
2021/11/30 08:36:51;;;;;;;1.33;0.90;;;;;;;;;;5007233;28;20014;-77
2021/11/30 08:39:17;;;;;;;2.27;0.93;;;;;;;;;;4992953;28;20064;-77
2021/11/30 08:41:42;;;;;;;2.53;1.10;;;;;;;;;;4999426;28;20025;-77
2021/11/30 08:44:07;;;;;;;1.57;0.90;;;;;;;;;;4997294;28;20052;-78
2021/11/30 08:46:33;;;;;;;1.17;0.50;;;;;;;;;;5010582;28;20025;-78
2021/11/30 08:48:58;;;;;;;1.07;0.60;;;;;;;;;;5021718;28;20045;-78
2021/11/30 08:51:24;;;;;;;1.03;0.43;;;;;;;;;;4995996;28;20105;-77
2021/11/30 08:53:49;;;;;;;0.80;0.60;;;;;;;;;;5005721;28;20109;-77
2021/11/30 08:56:15;;;;;;;0.40;0.30;;;;;;;;;;5011555;28;20018;-77
2021/11/30 08:58:40;;;;;;;0.97;0.40;;;;;;;;;;4991521;28;20120;-77
2021/11/30 09:01:06;;;;;;;2.50;0.20;;;;;;;;;;5011458;28;20615;-78
2021/11/30 09:03:31;;;;;;;1.13;0.50;;;;;;;;;;5012919;28;20105;-78
2021/11/30 09:05:58;;;;;;;1.23;0.60;;;;;;;;;;5012195;28;20026;-78
2021/11/30 09:08:23;;;;;;;0.37;0.30;;;;;;;;;;4995752;28;20029;-78
2021/11/30 09:10:49;;;;;;;0.40;0.30;;;;;;;;;;5011934;28;20014;-78
2021/11/30 09:13:16;;;;;;;0.47;0.30;;;;;;;;;;5013169;28;20475;-78
2021/11/30 09:15:41;;;;;;;1.30;0.30;;;;;;;;;;5012078;28;20021;-77
2021/11/30 09:18:06;;;;;;;0.57;0.37;;;;;;;;;;5013268;28;20418;-77
2021/11/30 09:20:32;;;;;;;0.80;0.20;;;;;;;;;;5011774;28;20364;-77
2021/11/30 09:22:58;;;;;;;0.60;0.20;;;;;;;;;;4990861;28;20078;-77
2021/11/30 09:25:23;;;;;;;0.10;0.10;;;;;;;;;;5011242;28;20100;-77
2021/11/30 09:27:49;;;;;;;1.60;0.10;;;;;;;;;;5006472;28;22911;-77
2021/11/30 09:30:16;;;;;;;0.30;0.10;;;;;;;;;;5007243;28;20025;-78
2021/11/30 09:32:42;;;;;;;0.60;0.30;;;;;;;;;;5012436;28;20021;-76
2021/11/30 09:35:09;;;;;;;0.67;0.10;;;;;;;;;;5011720;28;20029;-76
2021/11/30 09:37:39;;;;;;;0.20;0.20;;;;;;;;;;5012385;28;20049;-77
2021/11/30 09:40:08;;;;;;;0.20;0.10;;;;;;;;;;5011424;28;20057;-76
2021/11/30 09:42:34;;;;;;;0.20;0.10;;;;;;;;;;5011558;28;20106;-76
2021/11/30 09:45:02;;;;;;;0.17;0.10;;;;;;;;;;5010624;28;20018;-77
2021/11/30 09:47:28;;;;;;;0.10;0.03;;;;;;;;;;5010154;28;20121;-77
2021/11/30 09:49:54;;;;;;;0.20;0.20;;;;;;;;;;5011191;28;20108;-77
2021/11/30 09:52:19;;;;;;;0.20;0.10;;;;;;;;;;4994995;28;20072;-78
2021/11/30 09:54:44;;;;;;;0.20;0.10;;;;;;;;;;4994340;28;20429;-76
2021/11/30 09:57:10;;;;;;;0.20;0.20;;;;;;;;;;5011096;28;20532;-77
2021/11/30 09:59:35;;;;;;;0.20;0.10;;;;;;;;;;5006441;28;20501;-78
2021/11/30 10:02:01;;;;;;;0.07;0.07;;;;;;;;;;5011625;28;20026;-78
2021/11/30 10:04:26;;;;;;;0.17;0.10;;;;;;;;;;5010302;28;20490;-78
2021/11/30 10:06:51;;;;;;;0.40;0.20;;;;;;;;;;5010983;28;20022;-70
2021/11/30 10:09:20;;;;;;;2.27;0.10;;;;;;;;;;5006326;28;20025;-70
2021/11/30 10:11:54;;;;;;;0.40;0.20;;;;;;;;;;4991723;28;20025;-70
2021/11/30 10:14:23;;;;;;;0.20;0.10;;;;;;;;;;5009941;28;20053;-71
2021/11/30 10:17:07;;;;;;;0.63;0.10;;;;;;;;;;5011363;28;20029;-71
2021/11/30 10:19:32;;;;;;;0.30;0.10;;;;;;;;;;5011981;28;20029;-71
2021/11/30 10:21:58;;;;;;;0.10;0.00;;;;;;;;;;5011999;28;20109;-72
2021/11/30 10:24:23;;;;;;;2.43;0.20;;;;;;;;;;5009862;28;20054;-72
2021/11/30 10:26:49;;;;;;;0.20;0.10;;;;;;;;;;4993699;28;20391;-72
2021/11/30 10:29:15;;;;;;;1.40;0.20;;;;;;;;;;5007206;28;20493;-72
2021/11/30 10:31:45;;;;;;;0.30;0.20;;;;;;;;;;5010180;28;20161;-72
2021/11/30 10:34:14;;;;;;;1.07;0.10;;;;;;;;;;5010596;28;20104;-71
2021/11/30 10:36:58;;;;;;;0.40;0.10;;;;;;;;;;5011943;28;20089;-72
2021/11/30 10:39:29;;;;;;;0.20;0.00;;;;;;;;;;4992571;28;20034;-72
2021/11/30 10:42:11;;;;;;;1.07;0.10;;;;;;;;;;5024035;28;20025;-72
2021/11/30 10:44:37;;;;;;;0.10;0.00;;;;;;;;;;5011626;28;20018;-73
2021/11/30 10:47:13;;;;;;;2.50;0.10;;;;;;;;;;5011201;28;20488;-68
2021/11/30 10:49:58;;;;;;;0.20;0.10;;;;;;;;;;5011713;28;20463;-70
2021/11/30 10:52:28;;;;;;;1.13;0.00;;;;;;;;;;5008022;28;20042;-70
2021/11/30 10:55:06;;;;;;;0.10;0.10;;;;;;;;;;5011520;28;20028;-70
2021/11/30 10:57:32;;;;;;;0.53;0.10;;;;;;;;;;5007064;28;20026;-70
2021/11/30 11:00:10;;;;;;;2.57;0.07;;;;;;;;;;5008839;28;20045;-70
2021/11/30 11:03:05;;;;;;;2.00;0.03;;;;;;;;;;5010653;28;20026;-71
2021/11/30 11:05:34;;;;;;;0.30;0.10;;;;;;;;;;5010614;28;20042;-71
2021/11/30 11:08:01;;;;;;;0.30;0.20;;;;;;;;;;5011230;28;20505;-72
2021/11/30 11:10:26;;;;;;;0.17;0.07;;;;;;;;;;5010119;28;20548;-71
2021/11/30 11:12:52;;;;;;;0.10;0.03;;;;;;;;;;5009714;28;20152;-72
2021/11/30 11:15:35;;;;;;;0.20;0.00;;;;;;;;;;5010616;28;20383;-72
2021/11/30 11:18:16;;;;;;;0.20;0.10;;;;;;;;;;5010124;28;20053;-72
2021/11/30 11:20:42;;;;;;;1.00;0.10;;;;;;;;;;5013939;28;20026;-73
2021/11/30 11:23:07;;;;;;;0.20;0.03;;;;;;;;;;5013674;28;20050;-73
2021/11/30 11:25:32;;;;;;;0.00;0.00;;;;;;;;;;5016807;28;20060;-73
2021/11/30 11:27:58;;;;;;;0.10;0.00;;;;;;;;;;5007169;28;20471;-73
2021/11/30 11:30:23;;;;;;;0.10;0.03;;;;;;;;;;5014274;28;20033;-73
2021/11/30 11:32:49;;;;;;;0.10;0.00;;;;;;;;;;5013938;28;20022;-71
2021/11/30 11:35:16;;;;;;;0.50;0.00;;;;;;;;;;5014251;28;20467;-74
2021/11/30 11:37:43;;;;;;;0.27;0.10;;;;;;;;;;5013472;28;20096;-73
2021/11/30 11:40:10;;;;;;;0.27;0.00;;;;;;;;;;5034966;28;20021;-73
2021/11/30 11:42:36;;;;;;;0.10;0.00;;;;;;;;;;5000740;28;20036;-73
2021/11/30 11:45:02;;;;;;;0.67;0.20;;;;;;;;;;5012829;28;20474;-73
2021/11/30 11:47:27;;;;;;;0.10;0.00;;;;;;;;;;5014157;28;20021;-73
2021/11/30 11:49:56;;;;;;;1.10;0.10;;;;;;;;;;4996915;28;20867;-73
2021/11/30 11:52:23;;;;;;;0.20;0.00;;;;;;;;;;5015097;28;20089;-73
2021/11/30 11:54:57;;;;;;;0.30;0.10;;;;;;;;;;5014169;28;20022;-73
2021/11/30 11:57:23;;;;;;;0.10;0.10;;;;;;;;;;5012440;28;20026;-73
2021/11/30 11:59:54;;;;;;;0.20;0.00;;;;;;;;;;5008702;28;20040;-73
2021/11/30 12:02:29;;;;;;;0.30;0.10;;;;;;;;;;4996703;28;20076;-73
2021/11/30 12:04:55;;;;;;;0.10;0.10;;;;;;;;;;5013556;28;20101;-74
2021/11/30 12:07:22;;;;;;;0.30;0.20;;;;;;;;;;5014546;28;20022;-74
2021/11/30 12:09:47;;;;;;;0.20;0.10;;;;;;;;;;5014440;28;20109;-74
2021/11/30 12:12:21;;;;;;;0.50;0.10;;;;;;;;;;5014534;28;20144;-74
2021/11/30 12:14:48;;;;;;;0.10;0.10;;;;;;;;;;5013934;28;20026;-74
2021/11/30 12:17:27;;;;;;;0.87;0.10;;;;;;;;;;5012324;28;20520;-74
2021/11/30 12:20:03;;;;;;;0.30;0.20;;;;;;;;;;5014403;28;20026;-74
2021/11/30 12:22:44;;;;;;;0.23;0.10;;;;;;;;;;5013432;28;20089;-74
2021/11/30 12:25:29;;;;;;;0.20;0.10;;;;;;;;;;5012521;28;20034;-73
2021/11/30 12:27:57;;;;;;;0.30;0.28;;;;;;;;;;5008388;28;20026;-74
2021/11/30 12:30:41;;;;;;;0.10;0.10;;;;;;;;;;5012928;28;20034;-73
2021/11/30 12:33:21;;;;;;;3.40;0.13;;;;;;;;;;5011285;28;20018;-72
2021/11/30 12:36:07;;;;;;;0.50;0.10;;;;;;;;;;5012551;28;20026;-72
2021/11/30 12:38:33;;;;;;;0.17;0.10;;;;;;;;;;5013168;28;20033;-72
2021/11/30 12:40:59;;;;;;;0.47;0.10;;;;;;;;;;5012680;28;20022;-72
2021/11/30 12:43:28;;;;;;;0.20;0.20;;;;;;;;;;5012820;28;20132;-71
2021/11/30 12:46:00;;;;;;;0.20;0.10;;;;;;;;;;5012679;28;20478;-71
2021/11/30 12:48:28;;;;;;;0.20;0.10;;;;;;;;;;5012302;28;20026;-71
2021/11/30 12:51:14;;;;;;;0.20;0.10;;;;;;;;;;5011986;28;20026;-72
2021/11/30 12:53:40;;;;;;;1.95;0.20;;;;;;;;;;5013686;28;20025;-72
2021/11/30 12:56:06;;;;;;;0.20;0.10;;;;;;;;;;5012897;28;20018;-72
2021/11/30 12:58:47;;;;;;;0.40;0.13;;;;;;;;;;5008107;28;20087;-72
2021/11/30 13:01:14;;;;;;;0.37;0.20;;;;;;;;;;5007749;28;20108;-72
2021/11/30 13:03:39;;;;;;;0.20;0.20;;;;;;;;;;5012017;28;20113;-72
2021/11/30 13:06:04;;;;;;;0.20;0.20;;;;;;;;;;5012235;28;20133;-72
2021/11/30 13:08:30;;;;;;;0.20;0.20;;;;;;;;;;5012965;28;20383;-72
2021/11/30 13:10:55;;;;;;;0.23;0.20;;;;;;;;;;5011188;28;20069;-72
2021/11/30 13:13:21;;;;;;;0.30;0.20;;;;;;;;;;5013228;28;20018;-72
2021/11/30 13:15:49;;;;;;;0.10;0.10;;;;;;;;;;5010180;28;20155;-72
2021/11/30 13:18:15;;;;;;;0.60;0.10;;;;;;;;;;4993710;28;20027;-72
2021/11/30 13:20:42;;;;;;;0.30;0.20;;;;;;;;;;4995349;28;20113;-72
2021/11/30 13:23:07;;;;;;;0.40;0.10;;;;;;;;;;5011842;28;20057;-72
2021/11/30 13:25:35;;;;;;;0.27;0.10;;;;;;;;;;5013088;28;20394;-73
2021/11/30 13:28:01;;;;;;;0.00;0.00;;;;;;;;;;5009123;28;20036;-73
2021/11/30 13:30:31;;;;;;;0.20;0.10;;;;;;;;;;5011975;28;20076;-73
2021/11/30 13:33:03;;;;;;;1.40;0.47;;;;;;;;;;5011914;28;20041;-73
2021/11/30 13:35:51;;;;;;;0.40;0.10;;;;;;;;;;5012659;28;20022;-73
2021/11/30 13:38:17;;;;;;;1.50;0.20;;;;;;;;;;5007811;28;20133;-73
2021/11/30 13:40:44;;;;;;;0.37;0.20;;;;;;;;;;5011361;28;20065;-73
2021/11/30 13:43:12;;;;;;;0.30;0.10;;;;;;;;;;5012299;28;20089;-72
2021/11/30 13:45:48;;;;;;;0.40;0.20;;;;;;;;;;4999767;28;20425;-73
2021/11/30 13:48:14;;;;;;;0.10;0.10;;;;;;;;;;5011876;28;20098;-73
2021/11/30 13:50:40;;;;;;;1.30;0.20;;;;;;;;;;5012363;28;20072;-73
2021/11/30 13:53:07;;;;;;;0.20;0.10;;;;;;;;;;5012154;28;20022;-73
2021/11/30 13:55:33;;;;;;;0.57;0.10;;;;;;;;;;5009833;28;20036;-73
2021/11/30 13:57:59;;;;;;;0.60;0.20;;;;;;;;;;5008157;28;20014;-72
2021/11/30 14:00:25;;;;;;;0.27;0.10;;;;;;;;;;5010109;28;20034;-72
2021/11/30 14:02:50;;;;;;;0.20;0.20;;;;;;;;;;5023521;28;20116;-72
2021/11/30 14:05:16;;;;;;;0.30;0.13;;;;;;;;;;5010406;28;20104;-72
2021/11/30 14:07:52;;;;;;;0.37;0.20;;;;;;;;;;5012250;28;20323;-72
2021/11/30 14:10:18;;;;;;;0.77;0.27;;;;;;;;;;5011464;28;20091;-72
2021/11/30 14:12:44;;;;;;;0.63;0.20;;;;;;;;;;5010938;28;20025;-72
2021/11/30 14:15:10;;;;;;;0.40;0.30;;;;;;;;;;4994511;28;20101;-72
2021/11/30 14:17:37;;;;;;;0.50;0.20;;;;;;;;;;5011243;28;20044;-72
2021/11/30 14:20:23;;;;;;;0.40;0.20;;;;;;;;;;5012052;28;20168;-72
2021/11/30 14:22:49;;;;;;;0.37;0.10;;;;;;;;;;5010178;28;20513;-72
2021/11/30 14:25:20;;;;;;;0.50;0.30;;;;;;;;;;5012134;28;20017;-72
2021/11/30 14:27:51;;;;;;;0.47;0.20;;;;;;;;;;5005423;28;20678;-72
2021/11/30 14:30:16;;;;;;;0.17;0.10;;;;;;;;;;5010930;28;20018;-72
2021/11/30 14:32:44;;;;;;;1.17;0.20;;;;;;;;;;5010105;28;20033;-72
2021/11/30 14:35:14;;;;;;;0.47;0.20;;;;;;;;;;4995413;28;20029;-73
2021/11/30 14:37:48;;;;;;;0.57;0.30;;;;;;;;;;5005922;28;20113;-72
2021/11/30 14:40:23;;;;;;;0.60;0.43;;;;;;;;;;5010425;28;20033;-73
2021/11/30 14:42:51;;;;;;;0.60;0.40;;;;;;;;;;5010715;28;20032;-73
2021/11/30 14:45:24;;;;;;;1.33;0.40;;;;;;;;;;5010480;28;20033;-73
2021/11/30 14:47:51;;;;;;;0.60;0.40;;;;;;;;;;5010046;28;20474;-73
2021/11/30 14:50:19;;;;;;;0.40;0.30;;;;;;;;;;5013692;28;20030;-73
2021/11/30 14:52:45;;;;;;;1.90;0.70;;;;;;;;;;5014218;28;20494;-73
2021/11/30 14:55:14;;;;;;;0.70;0.20;;;;;;;;;;5014058;28;20025;-73